createdAt,value
2022-12-23T00:04:01.557Z,7.18
2022-12-23T00:06:29.534Z,8.20
2022-12-23T00:21:37.915Z,6.60
2022-12-23T00:24:06.045Z,7.03
2022-12-23T00:26:33.801Z,6.95
2022-12-23T00:30:09.191Z,5.82
2022-12-23T00:53:29.430Z,4.22
2022-12-23T01:12:35.737Z,4.43
2022-12-23T01:15:18.419Z,4.32
2022-12-23T01:28:40.688Z,3.75
2022-12-23T02:13:08.464Z,4.43
2022-12-23T02:37:46.591Z,4.93
2022-12-23T03:27:21.773Z,6.28
2022-12-23T03:30:59.184Z,4.50
2022-12-23T03:59:32.505Z,4.45
2022-12-23T06:55:11.405Z,20.83
2022-12-23T06:57:38.775Z,29.17
2022-12-23T07:00:08.524Z,28.00
2022-12-23T07:02:36.109Z,22.63
2022-12-23T07:05:03.599Z,15.00
2022-12-23T07:07:32.831Z,16.65
2022-12-23T07:09:59.926Z,15.93
2022-12-23T07:12:27.372Z,12.90
2022-12-23T07:36:40.033Z,8.38
2022-12-23T07:39:07.595Z,17.77
2022-12-23T07:41:35.012Z,8.13
2022-12-23T07:44:08.796Z,14.10
2022-12-23T07:46:36.046Z,8.93
2022-12-23T07:49:03.515Z,14.73
2022-12-23T07:51:31.746Z,7.97
2022-12-23T07:53:59.271Z,7.50
2022-12-23T07:56:26.478Z,6.82
2022-12-23T07:58:54.461Z,6.55
2022-12-23T08:01:23.087Z,6.55
2022-12-23T08:03:50.519Z,5.30
2022-12-23T08:06:17.838Z,5.95
2022-12-23T08:08:46.637Z,5.40
2022-12-23T08:11:15.782Z,6.22
2022-12-23T08:13:45.711Z,6.60
2022-12-23T08:16:12.999Z,6.60
2022-12-23T08:18:42.074Z,6.65
2022-12-23T09:19:09.697Z,8.20
2022-12-23T09:21:55.643Z,8.73
2022-12-23T09:24:23.053Z,9.13
2022-12-23T09:26:50.719Z,8.90
2022-12-23T09:29:18.034Z,8.98
2022-12-23T09:31:45.515Z,10.20
2022-12-23T09:34:12.983Z,10.27
2022-12-23T09:36:40.463Z,10.63
2022-12-23T09:39:07.847Z,11.88
2022-12-23T09:41:50.967Z,11.13
2022-12-23T09:44:57.298Z,15.10
2022-12-23T09:47:29.626Z,23.42
2022-12-23T09:50:03.009Z,14.38
2022-12-23T09:53:00.730Z,36.72
2022-12-23T10:00:34.332Z,13.02
2022-12-23T10:04:04.426Z,22.48
2022-12-23T10:06:34.609Z,12.25
2022-12-23T10:09:05.465Z,12.77
2022-12-23T10:11:41.029Z,12.27
2022-12-23T10:14:29.332Z,12.50
2022-12-23T10:17:04.985Z,11.45
2022-12-23T10:19:42.126Z,11.45
2022-12-23T10:22:40.245Z,7.18
2022-12-23T10:25:22.806Z,9.80
2022-12-23T10:27:50.315Z,8.75
2022-12-23T10:33:16.776Z,7.03
2022-12-23T10:36:15.502Z,4.55
2022-12-23T10:39:31.615Z,5.22
2022-12-23T11:14:32.941Z,2.72
2022-12-23T11:17:49.746Z,2.60
2022-12-23T11:20:20.210Z,2.60
2022-12-23T11:27:27.599Z,2.70
2022-12-23T11:29:55.247Z,3.13
2022-12-23T11:32:28.838Z,2.90
2022-12-23T11:36:47.778Z,2.97
2022-12-23T11:39:25.227Z,2.97
2022-12-23T11:42:19.539Z,3.00
2022-12-23T11:44:52.426Z,2.90
2022-12-23T11:54:23.450Z,3.72
2022-12-23T11:56:53.682Z,3.40
2022-12-23T11:59:37.077Z,3.40
2022-12-23T12:02:20.640Z,3.20
2022-12-23T12:09:06.894Z,4.03
2022-12-23T12:12:21.960Z,3.38
2022-12-23T12:14:56.595Z,3.15
2022-12-23T12:17:49.271Z,3.33
2022-12-23T12:20:29.022Z,3.53
2022-12-23T12:23:04.785Z,3.40
2022-12-23T12:25:52.761Z,4.00
2022-12-23T12:28:26.015Z,3.63
2022-12-23T12:31:03.640Z,3.90
2022-12-23T12:34:01.874Z,4.20
2022-12-23T12:36:48.985Z,4.05
2022-12-23T12:39:28.166Z,3.60
2022-12-23T12:42:11.716Z,3.50
2022-12-23T12:45:09.944Z,3.50
2022-12-23T12:47:57.851Z,3.10
2022-12-23T12:50:36.348Z,3.10
2022-12-23T12:53:17.780Z,3.10
2022-12-23T12:55:53.001Z,3.13
2022-12-23T12:58:23.826Z,3.30
2022-12-23T13:01:09.534Z,2.85
2022-12-23T13:04:22.361Z,2.90
2022-12-23T13:07:15.758Z,3.05
2022-12-23T13:10:39.751Z,2.80
2022-12-23T13:14:07.534Z,3.15
2022-12-23T13:17:00.396Z,2.65
2022-12-23T13:19:58.048Z,3.22
2022-12-23T13:22:34.128Z,3.00
2022-12-23T13:25:20.473Z,2.72
2022-12-23T13:28:17.382Z,2.97
2022-12-23T13:31:06.436Z,3.22
2022-12-23T13:34:02.229Z,3.40
2022-12-23T13:37:20.210Z,3.45
2022-12-23T13:40:29.164Z,3.40
2022-12-23T13:43:21.563Z,3.55
2022-12-23T13:45:53.320Z,3.50
2022-12-23T13:48:55.811Z,3.80
2022-12-23T13:52:23.254Z,3.30
2022-12-23T13:55:08.740Z,3.50
2022-12-23T13:58:03.878Z,3.92
2022-12-23T14:00:34.404Z,3.40
2022-12-23T14:03:01.661Z,3.70
2022-12-23T14:06:29.071Z,3.40
2022-12-23T14:08:56.369Z,3.45
2022-12-23T14:11:34.376Z,3.50
2022-12-23T14:14:17.579Z,4.18
2022-12-23T14:57:17.279Z,6.60
2022-12-23T15:00:05.800Z,7.88
2022-12-23T15:02:41.222Z,9.43
2022-12-23T15:05:10.246Z,9.88
2022-12-23T15:07:42.138Z,10.48
2022-12-23T15:10:18.639Z,10.27
2022-12-23T15:12:57.730Z,10.05
2022-12-23T15:15:30.657Z,9.82
2022-12-23T15:18:15.862Z,10.48
2022-12-23T15:20:43.288Z,10.20
2022-12-23T15:23:16.056Z,10.93
2022-12-23T15:25:48.759Z,10.20
2022-12-23T15:28:21.615Z,10.48
2022-12-23T15:30:54.831Z,9.82
2022-12-23T15:36:20.281Z,8.95
2022-12-23T15:38:47.773Z,9.27
2022-12-23T15:41:18.526Z,9.55
2022-12-23T15:43:45.878Z,9.48
2022-12-23T15:46:29.015Z,9.93
2022-12-23T15:48:57.927Z,8.82
2022-12-23T15:52:06.555Z,8.13
2022-12-23T15:54:30.051Z,8.63
2022-12-23T15:57:01.725Z,8.52
2022-12-23T15:59:37.949Z,10.10
2022-12-23T16:02:59.025Z,10.23
2022-12-23T16:05:13.339Z,11.30
2022-12-23T16:07:42.429Z,11.68
2022-12-23T16:13:44.903Z,12.02
2022-12-23T16:16:32.785Z,12.60
2022-12-23T16:19:00.585Z,12.75
2022-12-23T17:44:33.033Z,16.80
2022-12-23T19:36:38.738Z,19.85
2022-12-23T19:39:06.387Z,20.33
2022-12-23T19:41:33.435Z,20.30
2022-12-23T19:49:19.208Z,21.08
2022-12-23T19:51:47.350Z,20.85
2022-12-23T19:54:15.079Z,21.33
2022-12-23T19:56:42.416Z,21.70
2022-12-23T19:59:09.856Z,19.27
2022-12-23T20:01:37.038Z,21.10
2022-12-23T20:04:04.619Z,21.58
2022-12-23T20:06:34.739Z,19.17
2022-12-23T20:09:06.314Z,18.85
2022-12-23T20:11:37.539Z,20.23
2022-12-23T20:14:06.811Z,24.63
2022-12-23T20:16:35.558Z,23.27
2022-12-23T20:19:05.282Z,20.92
2022-12-23T20:21:34.100Z,20.20
2022-12-23T20:24:01.806Z,19.73
2022-12-23T20:26:29.211Z,20.73
2022-12-23T20:28:57.547Z,21.83
2022-12-23T20:31:28.855Z,19.70
2022-12-23T20:33:57.954Z,19.40
2022-12-23T20:36:29.840Z,19.13
2022-12-23T20:38:57.979Z,22.48
2022-12-23T20:41:28.506Z,19.23
2022-12-23T20:44:32.486Z,19.60
2022-12-23T20:46:43.965Z,19.80
2022-12-23T20:49:11.299Z,18.95
2022-12-23T20:51:38.350Z,22.55
2022-12-23T20:54:05.764Z,45.10
2022-12-23T20:56:32.863Z,24.60
2022-12-23T20:59:02.463Z,23.13
2022-12-23T21:01:35.744Z,21.15
2022-12-23T21:04:07.443Z,21.00
2022-12-23T21:06:36.117Z,21.83
2022-12-23T21:09:07.937Z,40.55
2022-12-23T21:11:39.145Z,35.17
2022-12-23T21:14:07.813Z,49.40
2022-12-23T21:16:38.328Z,65.35
2022-12-23T21:19:25.625Z,66.75
2022-12-23T21:21:53.724Z,64.80
2022-12-23T21:24:21.465Z,67.60
2022-12-23T21:26:56.529Z,80.28
2022-12-23T21:29:26.113Z,92.65
2022-12-23T21:31:53.526Z,108.80
2022-12-23T21:34:21.012Z,93.03
2022-12-23T21:36:48.172Z,88.43
2022-12-23T21:39:16.876Z,94.75
2022-12-23T21:41:44.246Z,66.78
2022-12-23T21:44:15.650Z,94.82
2022-12-23T21:46:42.937Z,49.33
2022-12-23T21:49:10.957Z,39.67
2022-12-23T21:51:40.837Z,74.57
2022-12-23T21:54:11.434Z,60.38
2022-12-23T21:56:40.650Z,47.20
2022-12-23T21:59:14.836Z,39.15
2022-12-23T22:01:42.907Z,37.85
2022-12-23T22:04:10.623Z,48.60
2022-12-23T22:06:43.634Z,41.90
2022-12-23T22:09:16.076Z,35.08
2022-12-23T22:11:43.946Z,36.20
2022-12-23T22:14:16.636Z,31.00
2022-12-23T22:16:44.076Z,38.55
2022-12-23T22:19:12.475Z,44.08
2022-12-23T22:21:39.773Z,33.38
2022-12-23T22:24:07.635Z,49.17
2022-12-23T22:26:35.928Z,30.75
2022-12-23T22:29:06.407Z,28.70
2022-12-23T22:31:42.441Z,28.65
2022-12-23T22:34:19.210Z,31.00
2022-12-23T22:36:49.462Z,58.50
2022-12-23T22:39:21.983Z,46.53
2022-12-23T22:41:52.929Z,27.85
2022-12-23T22:44:22.256Z,50.20
2022-12-23T22:46:51.328Z,55.22
2022-12-23T22:49:46.037Z,31.52
2022-12-23T22:52:14.272Z,29.35
2022-12-23T22:54:41.939Z,53.10
2022-12-23T22:57:11.376Z,39.63
2022-12-23T22:59:38.982Z,35.13
2022-12-23T23:02:06.262Z,52.05
2022-12-23T23:04:33.946Z,57.40
2022-12-23T23:07:01.380Z,29.73
2022-12-23T23:09:28.934Z,52.15
2022-12-23T23:11:56.185Z,36.08
2022-12-23T23:14:23.543Z,55.47
2022-12-23T23:16:51.148Z,55.40
2022-12-23T23:19:20.556Z,31.83
2022-12-23T23:21:48.790Z,57.75
2022-12-23T23:24:16.163Z,47.67
2022-12-23T23:26:43.291Z,32.42
2022-12-23T23:29:10.591Z,27.52
2022-12-23T23:31:42.929Z,51.35
2022-12-23T23:34:12.709Z,50.97
2022-12-23T23:36:40.505Z,31.63
2022-12-23T23:39:11.059Z,26.65
2022-12-23T23:41:38.446Z,26.20
2022-12-23T23:44:05.734Z,24.50
2022-12-23T23:46:34.372Z,24.05
2022-12-23T23:49:02.072Z,23.85
2022-12-23T23:51:29.458Z,22.60
2022-12-23T23:53:56.811Z,22.20
2022-12-23T23:56:26.186Z,22.17
2022-12-23T23:58:54.651Z,22.05
